Time;durP1;ratioP1;P1;durP2;ratioP2;P2;SDS_P1;SDS_P2;PMS_P1;PMS_P2;Temp;Humidity;BMP_temperature;BMP_pressure;BME280_temperature;BME280_humidity;BME280_pressure;Samples;Min_cycle;Max_cycle;Signal;HPM_P1;HPM_P2
2023/08/19 00:01:06;;;;;;;13.33;11.83;;;18.40;99.90;;;;;;8311493;28;20260;-63
2023/08/19 00:05:07;;;;;;;12.27;11.03;;;18.30;99.90;;;;;;8318970;28;20296;-64
2023/08/19 00:09:11;;;;;;;11.10;10.10;;;18.20;99.90;;;;;;8319328;28;20539;-63
2023/08/19 00:13:12;;;;;;;11.13;10.17;;;18.10;99.90;;;;;;8325703;28;20217;-63
2023/08/19 00:17:12;;;;;;;12.40;11.20;;;18.10;99.90;;;;;;8311260;28;20182;-64
2023/08/19 00:21:13;;;;;;;14.53;13.23;;;18.10;99.90;;;;;;8323484;28;21146;-64
2023/08/19 00:25:14;;;;;;;14.23;12.93;;;18.10;99.90;;;;;;8329253;28;20193;-63
2023/08/19 00:29:15;;;;;;;14.73;13.33;;;18.10;99.90;;;;;;8329026;28;20507;-63
2023/08/19 00:33:15;;;;;;;15.07;13.67;;;18.10;99.90;;;;;;8327546;28;20212;-63
2023/08/19 00:37:17;;;;;;;15.73;14.13;;;18.20;99.90;;;;;;8315802;28;20189;-62
2023/08/19 00:41:18;;;;;;;13.47;12.27;;;18.20;99.90;;;;;;8315757;28;20191;-62
2023/08/19 00:45:19;;;;;;;13.23;11.87;;;18.10;99.90;;;;;;8329164;28;20182;-64
2023/08/19 00:49:20;;;;;;;11.87;10.77;;;18.00;99.90;;;;;;8309105;28;20196;-63
2023/08/19 00:53:21;;;;;;;11.87;10.87;;;17.90;99.90;;;;;;8311774;28;20206;-64
2023/08/19 00:57:23;;;;;;;12.00;11.00;;;17.80;99.90;;;;;;8313486;28;20413;-63
2023/08/19 01:01:24;;;;;;;12.57;11.37;;;17.80;99.90;;;;;;8315146;28;20217;-65
2023/08/19 01:05:35;;;;;;;12.70;11.50;;;17.70;99.90;;;;;;8324129;28;20515;-65
2023/08/19 01:09:38;;;;;;;11.87;10.87;;;17.70;99.90;;;;;;8310923;28;20210;-64
2023/08/19 01:13:54;;;;;;;12.70;11.60;;;17.60;99.90;;;;;;8331166;28;20279;-65
2023/08/19 01:17:56;;;;;;;15.13;13.53;;;17.60;99.90;;;;;;8328051;28;20245;-65
2023/08/19 01:22:02;;;;;;;14.33;13.03;;;17.60;99.90;;;;;;8303787;28;20190;-66
2023/08/19 01:26:03;;;;;;;15.70;12.67;;;17.60;99.90;;;;;;8306014;28;20194;-64
2023/08/19 01:30:04;;;;;;;14.67;13.27;;;17.60;99.90;;;;;;8304188;28;20194;-65
2023/08/19 01:34:05;;;;;;;14.10;12.70;;;17.60;99.90;;;;;;8326684;28;20552;-65
2023/08/19 01:38:13;;;;;;;13.93;12.73;;;17.50;99.90;;;;;;8301838;28;20213;-64
2023/08/19 01:42:17;;;;;;;12.63;11.53;;;17.50;99.90;;;;;;8307990;28;20275;-66
2023/08/19 01:46:18;;;;;;;14.23;12.83;;;17.40;99.90;;;;;;8316088;28;20190;-65
2023/08/19 01:50:19;;;;;;;13.27;12.13;;;17.40;99.90;;;;;;8323446;28;20190;-64
2023/08/19 01:54:20;;;;;;;13.77;12.47;;;17.40;99.90;;;;;;8316850;28;20214;-66
2023/08/19 01:58:20;;;;;;;13.93;12.63;;;17.30;99.90;;;;;;8305981;28;20213;-64
2023/08/19 02:02:22;;;;;;;13.83;12.50;;;17.30;99.90;;;;;;8297415;28;20255;-64
2023/08/19 02:06:23;;;;;;;12.93;11.73;;;17.30;99.90;;;;;;8301744;28;20277;-66
2023/08/19 02:10:23;;;;;;;11.60;10.50;;;17.20;99.90;;;;;;8309896;28;20205;-63
2023/08/19 02:14:24;;;;;;;11.00;10.00;;;17.10;99.90;;;;;;8314875;28;20205;-66
2023/08/19 02:18:26;;;;;;;11.77;10.77;;;17.00;99.90;;;;;;8302886;28;20201;-65
2023/08/19 02:22:26;;;;;;;12.23;11.13;;;17.00;99.90;;;;;;8319170;28;20201;-64
2023/08/19 02:26:27;;;;;;;12.80;11.70;;;17.00;99.90;;;;;;8307929;28;20181;-65
2023/08/19 02:30:28;;;;;;;12.23;11.07;;;16.90;99.90;;;;;;8302520;28;20186;-64
2023/08/19 02:34:29;;;;;;;13.17;11.83;;;17.00;99.90;;;;;;8315079;28;20210;-66
2023/08/19 02:38:29;;;;;;;14.00;12.70;;;17.00;99.90;;;;;;8301883;28;20190;-64
2023/08/19 02:42:30;;;;;;;12.67;11.50;;;16.90;99.90;;;;;;8319257;28;20183;-66
2023/08/19 02:46:31;;;;;;;13.37;12.17;;;16.90;99.90;;;;;;8309250;28;20199;-65
2023/08/19 02:50:31;;;;;;;13.67;11.43;;;16.80;99.90;;;;;;8302021;28;20186;-65
2023/08/19 02:54:32;;;;;;;14.37;12.97;;;16.80;99.90;;;;;;8322644;28;20397;-68
2023/08/19 02:58:33;;;;;;;12.87;11.77;;;16.80;99.90;;;;;;8325799;28;20260;-66
2023/08/19 03:02:34;;;;;;;11.10;10.10;;;16.80;99.90;;;;;;8307194;28;20297;-66
2023/08/19 03:06:35;;;;;;;11.03;10.13;;;16.70;99.90;;;;;;8325229;28;20186;-65
2023/08/19 03:10:37;;;;;;;12.00;10.90;;;16.70;99.90;;;;;;8302732;28;20336;-64
2023/08/19 03:14:38;;;;;;;11.50;10.37;;;16.60;99.90;;;;;;8300262;28;20217;-66
2023/08/19 03:18:38;;;;;;;13.73;12.33;;;16.60;99.90;;;;;;8307464;28;20225;-65
2023/08/19 03:22:39;;;;;;;14.13;12.80;;;16.60;99.90;;;;;;8316346;28;20229;-66
2023/08/19 03:26:40;;;;;;;12.60;11.50;;;16.60;99.90;;;;;;8305070;28;20190;-66
2023/08/19 03:30:41;;;;;;;13.17;11.97;;;16.60;99.90;;;;;;8325549;28;20186;-65
2023/08/19 03:34:41;;;;;;;13.03;11.83;;;16.50;99.90;;;;;;8308246;28;20214;-65
2023/08/19 03:38:42;;;;;;;14.83;13.50;;;16.50;99.90;;;;;;8317515;28;20189;-66
2023/08/19 03:42:43;;;;;;;13.43;12.13;;;16.50;99.90;;;;;;8320242;28;20182;-67
2023/08/19 03:46:44;;;;;;;12.97;11.77;;;16.50;99.90;;;;;;8321583;28;20370;-64
2023/08/19 03:50:44;;;;;;;14.03;12.73;;;16.40;99.90;;;;;;8312769;28;20198;-66
2023/08/19 03:54:45;;;;;;;16.13;14.53;;;16.40;99.90;;;;;;8312158;28;20225;-67
2023/08/19 03:58:46;;;;;;;14.63;13.33;;;16.50;99.90;;;;;;8297668;28;20186;-68
2023/08/19 04:02:47;;;;;;;15.43;13.93;;;16.50;99.90;;;;;;8319947;28;20266;-65
2023/08/19 04:06:48;;;;;;;13.67;12.40;;;16.60;99.90;;;;;;8301044;28;20213;-66
2023/08/19 04:10:49;;;;;;;13.33;12.13;;;16.60;99.90;;;;;;8312625;28;20347;-66
2023/08/19 04:14:49;;;;;;;13.13;11.93;;;16.70;99.90;;;;;;8314336;28;20210;-66
2023/08/19 04:18:51;;;;;;;14.03;12.83;;;16.70;99.90;;;;;;8316998;28;20182;-65
2023/08/19 04:22:51;;;;;;;14.37;12.73;;;16.80;99.90;;;;;;8297594;28;20275;-66
2023/08/19 04:26:52;;;;;;;13.97;12.63;;;17.20;99.90;;;;;;8313321;28;20187;-67
2023/08/19 04:31:00;;;;;;;12.73;11.63;;;17.60;99.90;;;;;;8290433;28;20570;-65
2023/08/19 04:35:01;;;;;;;12.37;11.30;;;17.90;99.90;;;;;;8293140;28;20211;-65
2023/08/19 04:39:07;;;;;;;13.77;12.37;;;18.30;99.90;;;;;;8309568;28;20221;-65
2023/08/19 04:43:07;;;;;;;14.67;13.27;;;18.60;99.90;;;;;;8313480;28;20524;-65
2023/08/19 04:47:09;;;;;;;13.53;12.30;;;19.00;99.90;;;;;;8315103;28;20191;-66
2023/08/19 04:51:09;;;;;;;11.57;10.57;;;19.30;99.90;;;;;;8300192;28;20344;-65
2023/08/19 04:55:10;;;;;;;12.00;11.00;;;19.60;99.90;;;;;;8292743;28;20203;-66
2023/08/19 04:59:11;;;;;;;12.33;11.07;;;19.80;99.90;;;;;;8301380;28;20216;-67
2023/08/19 05:03:12;;;;;;;14.93;13.43;;;20.00;99.90;;;;;;8301731;28;20623;-65
2023/08/19 05:07:13;;;;;;;13.00;11.90;;;20.00;99.90;;;;;;8296721;28;21531;-65
2023/08/19 05:11:14;;;;;;;13.57;12.27;;;20.10;99.90;;;;;;8301749;28;20201;-65
2023/08/19 05:15:14;;;;;;;14.57;13.07;;;20.10;99.90;;;;;;8297911;28;20308;-66
2023/08/19 05:19:18;;;;;;;14.80;13.37;;;20.20;99.90;;;;;;8307758;28;20186;-66
2023/08/19 05:23:19;;;;;;;16.93;15.33;;;20.30;99.90;;;;;;8310657;28;20206;-67
2023/08/19 05:27:20;;;;;;;15.63;14.03;;;20.50;99.90;;;;;;8303875;28;20273;-66
2023/08/19 05:31:21;;;;;;;14.83;13.50;;;20.70;99.90;;;;;;8319841;28;20594;-65
2023/08/19 05:35:21;;;;;;;16.00;14.40;;;20.90;99.90;;;;;;8308003;28;20887;-66
2023/08/19 05:39:22;;;;;;;15.30;13.50;;;21.10;99.90;;;;;;8308977;28;20193;-66
2023/08/19 05:43:23;;;;;;;12.63;11.43;;;21.30;99.90;;;;;;8306255;28;20272;-69
2023/08/19 05:47:24;;;;;;;11.53;10.53;;;21.60;99.90;;;;;;8315691;28;20315;-68
2023/08/19 05:51:24;;;;;;;12.13;10.97;;;21.70;99.90;;;;;;8315768;28;20674;-69
2023/08/19 05:55:25;;;;;;;11.40;10.30;;;21.90;99.90;;;;;;8322215;28;20224;-67
2023/08/19 05:59:26;;;;;;;11.57;10.47;;;22.20;99.90;;;;;;8317638;28;20232;-66
2023/08/19 06:03:27;;;;;;;10.97;9.90;;;22.30;99.90;;;;;;8314515;28;20186;-67
2023/08/19 06:07:28;;;;;;;10.43;9.50;;;22.50;99.90;;;;;;8308919;28;20186;-66
2023/08/19 06:11:29;;;;;;;10.87;9.90;;;22.60;1.00;;;;;;8308429;28;20210;-66
2023/08/19 06:15:29;;;;;;;10.90;10.00;;;22.70;99.90;;;;;;8317940;28;20206;-67
2023/08/19 06:19:30;;;;;;;10.30;9.20;;;22.90;99.90;;;;;;8312594;28;20186;-68
2023/08/19 06:23:32;;;;;;;10.07;9.07;;;23.10;99.90;;;;;;8310726;28;20221;-67
2023/08/19 06:27:34;;;;;;;10.27;9.30;;;23.40;99.90;;;;;;8304363;28;20208;-67
2023/08/19 06:31:35;;;;;;;9.17;8.37;;;23.60;99.90;;;;;;8319990;28;20445;-67
2023/08/19 06:35:36;;;;;;;9.53;8.63;;;23.70;99.90;;;;;;8317706;28;20221;-66
2023/08/19 06:39:41;;;;;;;9.10;8.23;;;23.90;90.00;;;;;;8305927;28;20299;-64
2023/08/19 06:43:43;;;;;;;9.93;9.03;;;24.10;51.50;;;;;;8321915;28;20218;-67
2023/08/19 06:47:45;;;;;;;8.17;7.40;;;24.30;21.30;;;;;;8325155;28;20195;-64
2023/08/19 06:51:46;;;;;;;8.32;7.63;;;24.40;14.10;;;;;;8316741;28;20196;-65
2023/08/19 06:56:10;;;;;;;8.57;7.75;;;24.50;7.70;;;;;;8320233;28;20214;-66
2023/08/19 07:00:12;;;;;;;9.38;8.40;;;24.60;1.00;;;;;;8302200;28;20181;-67
2023/08/19 07:04:15;;;;;;;8.98;8.18;;;24.70;1.00;;;;;;8295782;28;20221;-66
2023/08/19 07:08:17;;;;;;;11.27;9.15;;;24.80;1.00;;;;;;8298062;28;20249;-66
2023/08/19 07:12:18;;;;;;;9.35;8.10;;;24.70;8.10;;;;;;8308402;28;20214;-67
2023/08/19 07:16:22;;;;;;;10.57;9.52;;;24.70;9.00;;;;;;8303188;28;21145;-67
2023/08/19 07:20:23;;;;;;;10.32;9.05;;;24.70;3.80;;;;;;8327430;28;20183;-66
2023/08/19 07:24:25;;;;;;;9.38;8.27;;;24.80;3.20;;;;;;8313878;28;20206;-67
2023/08/19 07:28:29;;;;;;;8.98;8.18;;;24.90;2.50;;;;;;8319678;28;20193;-67
2023/08/19 07:32:31;;;;;;;11.25;8.93;;;25.10;1.00;;;;;;8326108;28;20191;-67
2023/08/19 07:36:32;;;;;;;9.40;8.48;;;25.20;1.00;;;;;;8322248;28;20238;-67
2023/08/19 07:40:33;;;;;;;10.77;9.68;;;25.20;1.00;;;;;;8322888;28;20187;-66
2023/08/19 07:44:34;;;;;;;10.65;9.70;;;25.30;1.00;;;;;;8310498;28;20601;-65
2023/08/19 07:48:35;;;;;;;9.90;8.95;;;25.40;1.00;;;;;;8308064;28;20182;-66
2023/08/19 07:52:35;;;;;;;9.07;8.18;;;25.50;1.00;;;;;;8315688;28;20190;-64
2023/08/19 07:56:37;;;;;;;8.48;7.78;;;25.70;1.00;;;;;;8313663;28;21938;-65
2023/08/19 08:00:37;;;;;;;7.97;7.28;;;26.10;1.00;;;;;;8310636;28;20925;-67
2023/08/19 08:04:41;;;;;;;8.25;6.82;;;26.30;1.00;;;;;;8331380;28;20268;-67
2023/08/19 08:08:42;;;;;;;8.60;7.20;;;26.60;1.00;;;;;;8313290;28;20214;-65
2023/08/19 08:12:43;;;;;;;8.15;7.35;;;26.70;1.00;;;;;;8321227;28;20274;-66
2023/08/19 08:16:43;;;;;;;7.65;6.95;;;26.90;1.00;;;;;;8324502;28;20218;-65
2023/08/19 08:20:44;;;;;;;8.68;7.88;;;27.20;1.00;;;;;;8315462;28;20186;-69
2023/08/19 08:24:45;;;;;;;9.70;7.82;;;27.40;1.00;;;;;;8324032;28;20246;-66
2023/08/19 08:28:46;;;;;;;8.50;7.55;;;27.50;1.00;;;;;;8311429;28;20201;-64
2023/08/19 08:32:47;;;;;;;9.05;7.70;;;27.70;1.00;;;;;;8309655;28;20290;-65
2023/08/19 08:36:48;;;;;;;8.45;7.57;;;27.80;1.00;;;;;;8323912;28;20229;-66
2023/08/19 08:40:49;;;;;;;8.05;7.30;;;27.90;1.00;;;;;;8323874;28;20196;-66
2023/08/19 08:44:51;;;;;;;7.13;6.50;;;28.10;1.00;;;;;;8321635;28;20198;-69
2023/08/19 08:48:53;;;;;;;8.40;6.65;;;28.20;1.00;;;;;;8316816;28;20207;-70
2023/08/19 08:52:56;;;;;;;7.05;6.40;;;28.40;1.00;;;;;;8298205;28;20747;-68
2023/08/19 08:56:57;;;;;;;6.38;5.78;;;28.50;1.00;;;;;;8303894;28;20236;-66
2023/08/19 09:01:00;;;;;;;6.82;6.05;;;28.80;1.00;;;;;;8303916;28;20178;-65
2023/08/19 09:05:05;;;;;;;7.85;5.93;;;29.00;1.00;;;;;;8306982;28;20189;-71
2023/08/19 09:09:13;;;;;;;6.63;6.03;;;29.20;1.00;;;;;;8321010;28;20220;-68
2023/08/19 09:13:17;;;;;;;8.75;5.78;;;29.20;1.00;;;;;;8308488;28;20186;-68
2023/08/19 09:17:18;;;;;;;6.50;5.90;;;29.30;1.00;;;;;;8316992;28;20309;-66
2023/08/19 09:21:19;;;;;;;6.60;5.90;;;29.50;1.00;;;;;;8302701;28;20185;-67
2023/08/19 09:25:20;;;;;;;6.05;5.55;;;29.70;1.00;;;;;;8308560;28;20202;-71
2023/08/19 09:29:23;;;;;;;6.43;5.50;;;29.80;1.00;;;;;;8308104;28;20221;-69
2023/08/19 09:33:24;;;;;;;5.82;5.32;;;29.80;1.00;;;;;;8307894;28;20189;-67
2023/08/19 09:37:25;;;;;;;5.90;5.40;;;30.00;1.00;;;;;;8323515;28;20186;-67
2023/08/19 09:41:27;;;;;;;6.13;5.32;;;30.20;1.00;;;;;;8308094;28;20570;-68
2023/08/19 09:45:28;;;;;;;5.95;5.35;;;30.50;1.00;;;;;;8307839;28;20201;-67
2023/08/19 09:49:29;;;;;;;6.30;5.68;;;30.80;1.00;;;;;;8323510;28;20583;-67
2023/08/19 09:53:31;;;;;;;6.32;5.72;;;30.80;1.00;;;;;;8324408;28;20189;-65
2023/08/19 09:57:35;;;;;;;6.53;5.95;;;30.90;1.00;;;;;;8318671;28;20189;-69
2023/08/19 10:01:36;;;;;;;5.90;5.22;;;30.90;1.00;;;;;;8304154;28;20189;-67
2023/08/19 10:05:41;;;;;;;8.25;6.32;;;30.90;1.00;;;;;;8322242;28;20182;-65
2023/08/19 10:09:45;;;;;;;6.28;5.68;;;31.10;1.00;;;;;;8318259;28;20202;-69
2023/08/19 10:13:47;;;;;;;6.90;5.85;;;31.20;1.00;;;;;;8315048;28;20542;-65
2023/08/19 10:17:52;;;;;;;6.50;5.78;;;31.20;1.00;;;;;;8322188;28;20773;-66
2023/08/19 10:21:55;;;;;;;6.43;5.80;;;31.30;1.00;;;;;;8327169;28;20194;-66
2023/08/19 10:25:57;;;;;;;6.97;5.80;;;31.40;1.00;;;;;;8322729;28;20193;-72
2023/08/19 10:30:23;;;;;;;6.15;5.55;;;31.60;1.00;;;;;;8302402;28;20645;-66
2023/08/19 10:34:28;;;;;;;6.45;5.32;;;31.60;1.00;;;;;;8319587;28;20332;-66
2023/08/19 10:38:53;;;;;;;7.85;5.35;;;31.70;1.00;;;;;;8318714;28;20179;-68
2023/08/19 10:42:57;;;;;;;5.85;5.25;;;31.90;1.00;;;;;;8304185;28;20248;-64
2023/08/19 10:47:09;;;;;;;6.28;5.78;;;32.10;1.00;;;;;;8318691;28;20212;-66
2023/08/19 10:51:10;;;;;;;6.00;5.40;;;32.10;1.00;;;;;;8300837;28;20196;-64
2023/08/19 10:55:17;;;;;;;5.82;5.28;;;32.30;1.00;;;;;;8309741;28;21499;-68
2023/08/19 10:59:21;;;;;;;6.40;5.20;;;32.40;1.00;;;;;;8327237;28;20481;-67
2023/08/19 11:03:22;;;;;;;5.80;5.30;;;32.60;1.00;;;;;;8305644;28;20181;-65
2023/08/19 11:07:25;;;;;;;5.50;5.00;;;32.70;1.00;;;;;;8311011;28;20212;-70
2023/08/19 11:11:26;;;;;;;5.13;4.72;;;32.90;1.00;;;;;;8319735;28;20211;-68
2023/08/19 11:15:27;;;;;;;5.18;4.68;;;32.90;1.00;;;;;;8310055;28;20210;-66
2023/08/19 11:19:30;;;;;;;6.35;5.40;;;32.90;1.00;;;;;;8312357;28;20182;-65
2023/08/19 11:23:32;;;;;;;5.80;5.30;;;32.40;1.00;;;;;;8329176;28;20252;-66
2023/08/19 11:27:32;;;;;;;5.60;5.10;;;32.10;1.00;;;;;;8329613;28;20185;-66
2023/08/19 11:31:38;;;;;;;5.50;5.10;;;32.20;1.00;;;;;;8325470;28;20192;-65
2023/08/19 11:35:47;;;;;;;5.43;4.90;;;32.30;1.00;;;;;;8311640;28;21467;-68
2023/08/19 11:39:49;;;;;;;5.88;5.38;;;32.30;1.00;;;;;;8318264;28;20200;-68
2023/08/19 11:43:50;;;;;;;5.78;5.18;;;32.30;1.00;;;;;;8328946;28;20182;-67
2023/08/19 11:47:51;;;;;;;5.10;4.70;;;32.60;1.00;;;;;;8328405;28;20186;-67
2023/08/19 11:51:52;;;;;;;6.15;5.00;;;32.60;1.00;;;;;;8335518;28;20236;-68
2023/08/19 11:56:00;;;;;;;8.18;4.88;;;32.90;1.00;;;;;;8311493;28;20214;-65
2023/08/19 12:00:16;;;;;;;5.78;5.25;;;32.80;1.00;;;;;;8316940;28;20320;-65
2023/08/19 12:04:17;;;;;;;5.22;4.72;;;32.60;1.00;;;;;;8309611;28;20197;-64
2023/08/19 12:08:31;;;;;;;5.63;4.78;;;32.10;1.00;;;;;;8325714;28;20195;-66
2023/08/19 12:12:34;;;;;;;5.78;4.93;;;31.70;1.00;;;;;;8318761;28;20190;-69
2023/08/19 12:16:35;;;;;;;5.70;5.18;;;31.50;1.00;;;;;;8329542;28;20210;-66
2023/08/19 12:20:36;;;;;;;6.40;5.88;;;31.40;1.00;;;;;;8314600;28;20182;-67
2023/08/19 12:24:37;;;;;;;5.88;5.25;;;31.30;1.00;;;;;;8325747;28;20317;-67
2023/08/19 12:28:38;;;;;;;5.90;5.40;;;31.20;1.00;;;;;;8326561;28;20206;-68
2023/08/19 12:32:39;;;;;;;6.97;5.75;;;31.10;1.00;;;;;;8307697;28;20181;-69
2023/08/19 12:36:40;;;;;;;5.97;5.43;;;31.10;1.00;;;;;;8312850;28;20283;-66
2023/08/19 12:40:45;;;;;;;6.13;5.63;;;31.20;1.00;;;;;;8323617;28;20241;-66
2023/08/19 12:44:46;;;;;;;6.25;5.20;;;31.30;1.00;;;;;;8327684;28;20228;-65
2023/08/19 12:48:47;;;;;;;5.97;5.40;;;31.60;1.00;;;;;;8317922;28;20584;-70
2023/08/19 12:52:51;;;;;;;6.60;5.57;;;31.70;1.00;;;;;;8301577;28;20189;-67
2023/08/19 12:56:51;;;;;;;6.05;5.55;;;31.80;1.00;;;;;;8323587;28;20268;-67
2023/08/19 13:00:52;;;;;;;5.72;5.13;;;31.80;1.00;;;;;;8305683;28;20178;-67
2023/08/19 13:04:53;;;;;;;6.65;6.05;;;31.80;1.00;;;;;;8310114;28;20263;-65
2023/08/19 13:08:55;;;;;;;6.03;5.40;;;31.90;1.00;;;;;;8325611;28;20273;-65
2023/08/19 13:12:56;;;;;;;7.55;5.40;;;32.10;1.00;;;;;;8324899;28;20294;-68
2023/08/19 13:16:56;;;;;;;6.88;5.60;;;32.00;1.00;;;;;;8313228;28;20198;-67
2023/08/19 13:20:57;;;;;;;5.78;5.07;;;31.90;1.00;;;;;;8329349;28;20212;-64
2023/08/19 13:24:58;;;;;;;5.78;5.28;;;31.90;1.00;;;;;;8315349;28;20198;-64
2023/08/19 13:28:59;;;;;;;6.43;5.57;;;32.10;1.00;;;;;;8329586;28;20191;-64
2023/08/19 13:33:00;;;;;;;5.65;5.00;;;32.20;1.00;;;;;;8317770;28;20430;-64
2023/08/19 13:37:00;;;;;;;5.43;4.53;;;32.40;1.00;;;;;;8315133;28;20203;-69
2023/08/19 13:41:01;;;;;;;5.65;5.15;;;32.30;1.00;;;;;;8332701;28;20181;-67
2023/08/19 13:45:04;;;;;;;6.13;4.63;;;32.20;1.00;;;;;;8315977;28;20182;-65
2023/08/19 13:49:05;;;;;;;5.65;5.15;;;32.00;1.00;;;;;;8333953;28;20269;-67
2023/08/19 13:53:05;;;;;;;6.20;5.55;;;31.30;1.00;;;;;;8312337;28;20192;-67
2023/08/19 13:57:06;;;;;;;6.28;5.40;;;31.10;1.00;;;;;;8325267;28;20210;-66
2023/08/19 14:01:09;;;;;;;5.85;5.25;;;31.20;1.00;;;;;;8332145;28;20190;-67
2023/08/19 14:05:16;;;;;;;6.55;5.60;;;31.30;1.00;;;;;;8314735;28;20240;-65
2023/08/19 14:09:17;;;;;;;6.78;6.03;;;31.40;1.00;;;;;;8312920;28;20214;-69
2023/08/19 14:13:19;;;;;;;5.70;5.30;;;31.60;1.00;;;;;;8320477;28;20193;-65
2023/08/19 14:17:19;;;;;;;6.28;5.78;;;31.60;1.00;;;;;;8327380;28;20281;-65
2023/08/19 14:21:20;;;;;;;6.10;5.50;;;31.60;1.00;;;;;;8329601;28;20197;-66
2023/08/19 14:25:21;;;;;;;6.30;5.70;;;31.60;1.00;;;;;;8315578;28;20301;-65
2023/08/19 14:29:21;;;;;;;6.40;5.15;;;31.60;1.00;;;;;;8327919;28;20263;-66
2023/08/19 14:33:22;;;;;;;5.82;5.32;;;31.60;1.00;;;;;;8325537;28;20189;-65
2023/08/19 14:37:23;;;;;;;5.60;5.10;;;31.70;1.00;;;;;;8314031;28;20336;-65
2023/08/19 14:41:24;;;;;;;8.93;5.53;;;31.80;1.00;;;;;;8314653;28;20249;-65
2023/08/19 14:45:25;;;;;;;6.30;5.70;;;31.80;1.00;;;;;;8321424;28;20273;-65
2023/08/19 14:49:26;;;;;;;6.13;5.53;;;31.80;1.00;;;;;;8325516;28;20190;-65
2023/08/19 14:53:28;;;;;;;6.40;5.25;;;31.80;1.00;;;;;;8315864;28;20190;-67
2023/08/19 14:57:29;;;;;;;5.68;5.18;;;31.80;1.00;;;;;;8315283;28;20206;-64
2023/08/19 15:01:30;;;;;;;6.63;5.30;;;31.80;1.00;;;;;;8332805;28;20261;-65
2023/08/19 15:05:31;;;;;;;5.57;5.18;;;31.60;1.00;;;;;;8325144;28;20179;-68
2023/08/19 15:09:32;;;;;;;5.70;5.20;;;31.70;1.00;;;;;;8328323;28;20284;-64
2023/08/19 15:13:33;;;;;;;5.90;5.40;;;31.60;1.00;;;;;;8315309;28;20193;-65
2023/08/19 15:17:34;;;;;;;6.38;5.80;;;31.60;1.00;;;;;;8328840;28;20302;-67
2023/08/19 15:21:37;;;;;;;8.07;5.60;;;31.60;1.00;;;;;;8324150;28;20198;-63
2023/08/19 15:25:37;;;;;;;5.32;4.82;;;31.50;1.00;;;;;;8335052;28;20210;-63
2023/08/19 15:29:38;;;;;;;6.65;6.00;;;31.40;1.00;;;;;;8335036;28;20194;-63
2023/08/19 15:33:39;;;;;;;6.35;5.03;;;31.40;1.00;;;;;;8321237;28;20196;-63
2023/08/19 15:37:40;;;;;;;5.80;5.30;;;31.40;1.00;;;;;;8310223;28;20215;-66
2023/08/19 15:41:41;;;;;;;5.57;5.07;;;31.40;1.00;;;;;;8330237;28;20198;-68
2023/08/19 15:45:42;;;;;;;5.38;4.88;;;31.40;1.00;;;;;;8324227;28;20191;-64
2023/08/19 15:49:43;;;;;;;6.40;5.82;;;31.30;1.00;;;;;;8319374;28;20182;-69
2023/08/19 15:53:43;;;;;;;6.28;5.10;;;31.30;1.00;;;;;;8331131;28;20179;-63
2023/08/19 15:57:44;;;;;;;6.35;5.68;;;31.20;1.00;;;;;;8323265;28;20189;-63
2023/08/19 16:01:45;;;;;;;6.18;5.30;;;31.20;1.00;;;;;;8313985;28;20213;-63
2023/08/19 16:05:48;;;;;;;5.10;4.70;;;31.20;1.00;;;;;;8312944;28;20214;-67
2023/08/19 16:09:49;;;;;;;6.25;5.65;;;31.20;1.00;;;;;;8315223;28;20211;-63
2023/08/19 16:13:50;;;;;;;5.45;5.03;;;31.10;1.00;;;;;;8337222;28;20178;-64
2023/08/19 16:17:51;;;;;;;6.00;5.40;;;31.10;1.00;;;;;;8314784;28;20186;-67
2023/08/19 16:21:55;;;;;;;5.68;5.18;;;31.10;1.00;;;;;;8329437;28;20259;-68
2023/08/19 16:25:56;;;;;;;7.22;5.82;;;31.00;1.00;;;;;;8333628;28;20198;-63
2023/08/19 16:29:58;;;;;;;5.90;5.40;;;31.00;1.00;;;;;;8327255;28;20182;-65
2023/08/19 16:33:59;;;;;;;7.50;5.50;;;30.90;1.00;;;;;;8318845;28;20201;-65
2023/08/19 16:38:00;;;;;;;5.85;5.35;;;30.80;1.00;;;;;;8330313;28;20173;-63
2023/08/19 16:42:01;;;;;;;8.13;5.22;;;30.70;1.00;;;;;;8312686;28;20236;-63
2023/08/19 16:46:02;;;;;;;6.07;5.47;;;30.60;1.00;;;;;;8319786;28;20182;-65
2023/08/19 16:50:03;;;;;;;6.03;5.53;;;30.60;1.00;;;;;;8313166;28;20181;-65
2023/08/19 16:54:07;;;;;;;5.40;4.80;;;30.50;1.00;;;;;;8315768;28;20212;-66
2023/08/19 16:58:08;;;;;;;5.70;5.18;;;30.40;1.00;;;;;;8317930;28;20288;-65
2023/08/19 17:02:12;;;;;;;6.03;5.43;;;30.40;1.00;;;;;;8316625;28;20178;-65
2023/08/19 17:06:16;;;;;;;6.32;5.72;;;30.20;1.00;;;;;;8311820;28;20187;-63
2023/08/19 17:10:17;;;;;;;5.95;5.50;;;30.00;1.00;;;;;;8324207;28;20206;-65
2023/08/19 17:14:18;;;;;;;5.55;5.05;;;29.90;1.00;;;;;;8324539;28;20195;-66
2023/08/19 17:18:18;;;;;;;6.28;5.78;;;29.70;1.00;;;;;;8337978;28;20296;-64
2023/08/19 17:22:23;;;;;;;7.40;6.65;;;29.50;1.00;;;;;;8334570;28;20204;-64
2023/08/19 17:26:24;;;;;;;7.13;6.53;;;29.20;1.00;;;;;;8320511;28;20182;-64
2023/08/19 17:30:25;;;;;;;7.43;6.72;;;28.90;1.00;;;;;;8328835;28;20204;-64
2023/08/19 17:34:25;;;;;;;7.82;7.13;;;28.50;1.00;;;;;;8335497;28;20205;-65
2023/08/19 17:38:27;;;;;;;7.22;6.63;;;28.40;1.00;;;;;;8335380;28;20190;-64
2023/08/19 17:42:27;;;;;;;8.07;7.35;;;28.20;1.00;;;;;;8336862;28;20214;-65
2023/08/19 17:46:29;;;;;;;7.93;7.28;;;28.10;1.00;;;;;;8335173;28;20192;-64
2023/08/19 17:50:30;;;;;;;7.85;7.20;;;28.20;1.00;;;;;;8337106;28;20216;-64
2023/08/19 17:54:31;;;;;;;8.15;7.45;;;28.10;1.00;;;;;;8314508;28;20213;-65
2023/08/19 17:58:32;;;;;;;8.43;7.63;;;27.80;1.00;;;;;;8326897;28;20279;-64
2023/08/19 18:02:33;;;;;;;7.53;6.93;;;27.50;1.00;;;;;;8320320;28;20189;-64
2023/08/19 18:06:34;;;;;;;7.32;6.80;;;27.00;1.00;;;;;;8303607;28;20267;-64
2023/08/19 18:10:35;;;;;;;8.25;7.55;;;26.60;1.00;;;;;;8318614;28;20255;-64
2023/08/19 18:14:36;;;;;;;8.00;7.40;;;26.30;1.00;;;;;;8308721;28;20225;-65
2023/08/19 18:18:37;;;;;;;8.68;7.97;;;25.90;1.00;;;;;;8326508;28;20285;-64
2023/08/19 18:22:37;;;;;;;8.48;7.78;;;25.60;18.90;;;;;;8297717;28;20557;-63
2023/08/19 18:26:38;;;;;;;9.38;8.57;;;25.30;52.80;;;;;;8311919;28;20229;-63
2023/08/19 18:30:39;;;;;;;9.27;8.57;;;25.10;95.10;;;;;;8317811;28;20272;-64
2023/08/19 18:34:39;;;;;;;8.82;8.13;;;24.80;99.90;;;;;;8299582;28;20202;-63
2023/08/19 18:38:40;;;;;;;8.90;8.20;;;24.70;99.90;;;;;;8307468;28;20186;-63
2023/08/19 18:42:42;;;;;;;9.38;8.48;;;24.50;99.90;;;;;;8304039;28;20187;-63
2023/08/19 18:46:43;;;;;;;9.55;8.82;;;24.30;99.90;;;;;;8320041;28;20182;-63
2023/08/19 18:50:46;;;;;;;9.90;9.07;;;24.20;99.90;;;;;;8303065;28;20194;-64
2023/08/19 18:54:47;;;;;;;10.10;9.20;;;24.00;99.90;;;;;;8316483;28;20213;-67
2023/08/19 18:58:47;;;;;;;11.27;10.37;;;23.80;99.90;;;;;;8304936;28;20186;-63
2023/08/19 19:02:51;;;;;;;10.27;9.47;;;23.70;99.90;;;;;;8302087;28;20182;-63
2023/08/19 19:06:52;;;;;;;12.07;11.07;;;23.60;99.90;;;;;;8308051;28;20183;-63
2023/08/19 19:10:53;;;;;;;10.87;10.03;;;23.50;99.90;;;;;;8324305;28;20206;-63
2023/08/19 19:14:54;;;;;;;10.67;9.77;;;23.30;99.90;;;;;;8334183;28;20202;-63
2023/08/19 19:18:54;;;;;;;10.70;9.90;;;23.20;99.90;;;;;;8337954;28;20190;-63
2023/08/19 19:22:57;;;;;;;10.63;9.83;;;23.10;1.00;;;;;;8322071;28;20186;-64
2023/08/19 19:26:58;;;;;;;11.13;10.23;;;22.90;1.00;;;;;;8318719;28;20212;-63
2023/08/19 19:30:59;;;;;;;10.93;10.03;;;22.80;1.00;;;;;;8335991;28;20190;-62
2023/08/19 19:35:00;;;;;;;10.87;9.87;;;22.70;1.00;;;;;;8324002;28;20209;-65
2023/08/19 19:39:00;;;;;;;12.27;11.17;;;22.60;48.60;;;;;;8312437;28;20218;-64
2023/08/19 19:43:01;;;;;;;11.40;10.50;;;22.50;99.90;;;;;;8331725;28;20233;-63
2023/08/19 19:47:02;;;;;;;11.93;10.83;;;22.40;99.90;;;;;;8321736;28;20191;-64
2023/08/19 19:51:03;;;;;;;11.67;10.67;;;22.30;99.90;;;;;;8318232;28;20186;-63
2023/08/19 19:55:04;;;;;;;11.83;10.83;;;22.20;99.90;;;;;;8331374;28;20289;-63
2023/08/19 19:59:05;;;;;;;12.27;11.13;;;22.20;99.90;;;;;;8307819;28;20193;-64
2023/08/19 20:03:06;;;;;;;11.87;10.87;;;22.10;99.90;;;;;;8335925;28;20286;-64
2023/08/19 20:07:07;;;;;;;12.17;11.17;;;22.10;99.90;;;;;;8321891;28;20470;-65
2023/08/19 20:11:08;;;;;;;12.73;11.53;;;22.00;99.90;;;;;;8326222;28;20207;-65
2023/08/19 20:15:09;;;;;;;12.10;11.10;;;22.10;56.20;;;;;;8327096;28;20219;-65
2023/08/19 20:19:13;;;;;;;11.83;10.83;;;22.10;7.20;;;;;;8326985;28;20194;-65
2023/08/19 20:23:13;;;;;;;11.33;10.43;;;22.00;1.00;;;;;;8307891;28;20303;-65
2023/08/19 20:27:14;;;;;;;11.93;10.93;;;22.10;1.00;;;;;;8310019;28;20228;-65
2023/08/19 20:31:15;;;;;;;12.47;11.27;;;22.00;1.00;;;;;;8315804;28;20280;-64
2023/08/19 20:35:18;;;;;;;12.13;11.13;;;21.90;1.00;;;;;;8308314;28;20214;-65
2023/08/19 20:39:19;;;;;;;12.10;11.10;;;21.80;27.30;;;;;;8308993;28;20255;-65
2023/08/19 20:43:20;;;;;;;11.90;10.77;;;21.70;85.60;;;;;;8314215;28;20277;-65
2023/08/19 20:47:21;;;;;;;12.10;11.10;;;21.60;99.90;;;;;;8308476;28;20182;-65
2023/08/19 20:51:22;;;;;;;11.73;10.73;;;21.50;99.90;;;;;;8315470;28;20196;-65
2023/08/19 20:55:22;;;;;;;12.23;11.17;;;21.40;99.90;;;;;;8311491;28;20214;-64